createdAt,value
2023-10-23T00:02:31.842Z,15.00
2023-10-23T00:05:22.005Z,15.00
2023-10-23T00:08:10.794Z,15.00
2023-10-23T00:10:59.372Z,14.90
2023-10-23T00:13:47.952Z,14.90
2023-10-23T00:16:36.570Z,15.10
2023-10-23T00:19:25.147Z,14.90
2023-10-23T00:22:15.059Z,14.90
2023-10-23T00:25:03.679Z,14.90
2023-10-23T00:27:52.255Z,14.90
2023-10-23T00:30:40.982Z,14.90
2023-10-23T00:33:30.381Z,14.80
2023-10-23T00:36:19.152Z,14.90
2023-10-23T00:39:09.183Z,14.70
2023-10-23T00:41:57.713Z,14.70
2023-10-23T00:44:46.341Z,14.80
2023-10-23T00:47:35.298Z,15.00
2023-10-23T00:50:24.159Z,14.90
2023-10-23T00:53:12.939Z,14.80
2023-10-23T00:56:05.714Z,14.70
2023-10-23T00:58:54.515Z,14.70
2023-10-23T01:01:45.515Z,14.70
2023-10-23T01:04:34.515Z,14.80
2023-10-23T01:07:23.370Z,14.60
2023-10-23T01:10:12.106Z,14.50
2023-10-23T01:13:02.082Z,14.40
2023-10-23T01:15:51.012Z,14.50
2023-10-23T01:18:39.706Z,14.60
2023-10-23T01:21:28.353Z,14.70
2023-10-23T01:24:18.830Z,14.90
2023-10-23T01:27:08.791Z,15.00
2023-10-23T01:29:57.368Z,15.10
2023-10-23T01:32:45.965Z,15.10
2023-10-23T01:35:34.553Z,15.10
2023-10-23T01:38:23.056Z,14.90
2023-10-23T01:41:11.833Z,14.80
2023-10-23T01:44:01.799Z,14.90
2023-10-23T01:46:50.381Z,15.00
2023-10-23T01:49:39.001Z,15.00
2023-10-23T01:52:27.477Z,15.10
2023-10-23T01:55:16.064Z,15.10
2023-10-23T01:58:04.884Z,15.10
2023-10-23T02:00:54.934Z,15.10
2023-10-23T02:03:43.597Z,15.10
2023-10-23T02:06:32.319Z,15.00
2023-10-23T02:09:20.991Z,14.90
2023-10-23T02:12:09.633Z,14.90
2023-10-23T02:14:58.141Z,14.90
2023-10-23T02:17:48.188Z,14.80
2023-10-23T02:20:37.130Z,14.80
2023-10-23T02:23:25.657Z,14.60
2023-10-23T02:26:14.248Z,14.60
2023-10-23T02:29:02.853Z,14.50
2023-10-23T02:31:51.437Z,14.50
2023-10-23T02:34:41.463Z,14.60
2023-10-23T02:37:30.205Z,14.70
2023-10-23T02:40:18.930Z,14.80
2023-10-23T02:43:07.527Z,14.80
2023-10-23T02:45:56.192Z,14.90
2023-10-23T02:48:44.901Z,14.90
2023-10-23T02:51:35.123Z,14.90
2023-10-23T02:54:23.858Z,14.80
2023-10-23T02:57:12.481Z,14.70
2023-10-23T03:00:01.496Z,14.80
2023-10-23T03:02:50.287Z,14.70
2023-10-23T03:05:39.120Z,14.60
2023-10-23T03:08:29.087Z,14.60
2023-10-23T03:11:17.953Z,14.70
2023-10-23T03:14:09.009Z,14.70
2023-10-23T03:16:57.750Z,14.70
2023-10-23T03:19:46.794Z,14.70
2023-10-23T03:22:35.369Z,14.70
2023-10-23T03:25:26.025Z,14.80
2023-10-23T03:28:14.592Z,14.90
2023-10-23T03:31:04.468Z,14.90
2023-10-23T03:33:53.305Z,15.00
2023-10-23T03:36:41.995Z,15.00
2023-10-23T03:39:30.693Z,15.10
2023-10-23T03:42:20.641Z,15.10
2023-10-23T03:45:09.934Z,15.10
2023-10-23T03:47:58.563Z,15.10
2023-10-23T03:50:47.174Z,15.10
2023-10-23T03:53:35.688Z,15.40
2023-10-23T03:56:24.258Z,15.10
2023-10-23T03:59:14.153Z,15.00
2023-10-23T04:02:02.824Z,15.00
2023-10-23T04:04:51.479Z,15.00
2023-10-23T04:07:40.018Z,15.10
2023-10-23T04:10:28.640Z,15.10
2023-10-23T04:13:17.946Z,15.00
2023-10-23T04:16:08.968Z,15.10
2023-10-23T04:18:57.626Z,15.00
2023-10-23T04:21:46.446Z,15.00
2023-10-23T04:24:35.114Z,15.00
2023-10-23T04:27:23.766Z,14.90
2023-10-23T04:30:13.328Z,14.80
2023-10-23T04:33:03.794Z,14.80
2023-10-23T04:35:53.314Z,14.90
2023-10-23T04:38:41.918Z,14.90
2023-10-23T04:41:30.403Z,15.00
2023-10-23T04:44:20.675Z,15.00
2023-10-23T04:47:09.748Z,15.00
2023-10-23T04:49:59.697Z,15.00
2023-10-23T04:52:48.241Z,15.00
2023-10-23T04:55:37.317Z,15.00
2023-10-23T04:58:26.033Z,15.00
2023-10-23T05:01:17.912Z,14.90
2023-10-23T05:04:07.247Z,14.90
2023-10-23T05:06:58.010Z,14.90
2023-10-23T05:09:46.603Z,14.90
2023-10-23T05:12:35.331Z,14.90
2023-10-23T05:15:25.266Z,14.90
2023-10-23T05:18:13.933Z,14.90
2023-10-23T05:21:28.767Z,14.90
2023-10-23T05:24:18.834Z,14.90
2023-10-23T05:27:07.446Z,15.00
2023-10-23T05:29:56.185Z,15.00
2023-10-23T05:32:44.831Z,15.00
2023-10-23T05:35:33.549Z,14.80
2023-10-23T05:38:23.268Z,14.80
2023-10-23T05:41:13.261Z,14.70
2023-10-23T05:44:01.859Z,14.60
2023-10-23T05:46:50.557Z,14.50
2023-10-23T05:49:39.195Z,14.40
2023-10-23T05:52:27.923Z,14.30
2023-10-23T05:55:16.730Z,14.40
2023-10-23T05:58:06.726Z,14.50
2023-10-23T06:00:55.517Z,14.50
2023-10-23T06:03:44.272Z,14.40
2023-10-23T06:06:32.877Z,14.40
2023-10-23T06:09:21.420Z,14.50
2023-10-23T06:12:10.498Z,14.60
2023-10-23T06:15:00.816Z,14.70
2023-10-23T06:17:51.295Z,14.80
2023-10-23T06:20:39.858Z,15.00
2023-10-23T06:23:28.480Z,15.00
2023-10-23T06:26:17.110Z,14.90
2023-10-23T06:29:05.870Z,14.80
2023-10-23T06:31:57.500Z,14.80
2023-10-23T06:34:46.111Z,14.80
2023-10-23T06:37:34.761Z,14.80
2023-10-23T06:40:23.353Z,14.80
2023-10-23T06:43:12.764Z,14.90
2023-10-23T06:46:02.704Z,15.00
2023-10-23T06:48:53.113Z,15.00
2023-10-23T06:51:41.652Z,14.90
2023-10-23T06:54:31.932Z,14.90
2023-10-23T06:57:20.612Z,14.90
2023-10-23T07:00:09.938Z,15.00
2023-10-23T07:02:58.715Z,15.00
2023-10-23T07:05:48.784Z,15.10
2023-10-23T07:08:38.536Z,15.10
2023-10-23T07:11:27.114Z,15.20
2023-10-23T07:14:16.129Z,15.20
2023-10-23T07:17:04.940Z,15.30
2023-10-23T07:19:53.593Z,15.30
2023-10-23T07:22:43.527Z,15.30
2023-10-23T07:25:32.097Z,15.30
2023-10-23T07:28:20.602Z,15.30
2023-10-23T07:33:58.941Z,15.50
2023-10-23T07:36:47.524Z,15.50
2023-10-23T07:39:37.633Z,15.50
2023-10-23T07:42:28.387Z,15.60
2023-10-23T07:45:17.005Z,15.60
2023-10-23T07:48:05.724Z,15.70
2023-10-23T07:50:54.286Z,15.80
2023-10-23T07:53:43.097Z,15.80
2023-10-23T07:56:33.029Z,15.90
2023-10-23T07:59:23.106Z,15.90
2023-10-23T08:02:11.904Z,16.00
2023-10-23T08:05:00.666Z,16.10
2023-10-23T08:07:49.432Z,16.20
2023-10-23T08:10:37.965Z,16.30
2023-10-23T08:13:27.903Z,16.50
2023-10-23T08:16:16.540Z,16.70
2023-10-23T08:19:05.199Z,16.90
2023-10-23T08:21:53.885Z,17.00
2023-10-23T08:24:42.536Z,17.20
2023-10-23T08:27:31.630Z,17.30
2023-10-23T08:30:21.756Z,17.50
2023-10-23T08:33:10.703Z,17.60
2023-10-23T08:35:59.338Z,17.70
2023-10-23T08:38:47.797Z,17.80
2023-10-23T08:41:39.523Z,17.80
2023-10-23T08:44:29.804Z,17.90
2023-10-23T08:47:19.922Z,18.00
2023-10-23T08:50:09.327Z,18.10
2023-10-23T08:53:00.048Z,18.30
2023-10-23T08:55:49.419Z,18.40
2023-10-23T08:58:39.569Z,18.40
2023-10-23T09:01:29.627Z,18.50
2023-10-23T09:04:19.773Z,18.60
2023-10-23T09:07:08.447Z,18.70
2023-10-23T09:10:04.562Z,18.90
2023-10-23T09:12:58.183Z,18.90
2023-10-23T09:15:52.776Z,18.90
2023-10-23T09:18:50.399Z,19.00
2023-10-23T09:21:40.620Z,19.10
2023-10-23T09:24:29.436Z,19.30
2023-10-23T09:27:18.368Z,19.40
2023-10-23T09:30:09.965Z,19.50
2023-10-23T09:32:58.566Z,19.60
2023-10-23T09:35:48.313Z,19.70
2023-10-23T09:38:40.814Z,19.80
2023-10-23T09:41:31.496Z,19.90
2023-10-23T09:44:20.195Z,20.00
2023-10-23T09:47:10.195Z,20.10
2023-10-23T09:50:00.026Z,20.30
2023-10-23T09:52:50.180Z,20.40
2023-10-23T09:58:36.421Z,20.60
2023-10-23T10:01:33.930Z,20.60
2023-10-23T10:04:27.854Z,20.70
2023-10-23T18:40:53.858Z,19.10
2023-10-23T18:43:44.650Z,19.10
2023-10-23T18:46:33.363Z,19.00
2023-10-23T18:49:22.294Z,19.00
2023-10-23T18:52:11.157Z,18.90
2023-10-23T18:54:59.908Z,18.90
2023-10-23T18:57:48.780Z,18.90
2023-10-23T19:00:38.740Z,18.90
2023-10-23T19:03:27.286Z,18.80
2023-10-23T19:06:15.989Z,18.80
2023-10-23T19:09:05.567Z,18.90
2023-10-23T19:11:54.212Z,19.00
2023-10-23T19:14:43.028Z,19.00
2023-10-23T19:17:40.895Z,19.00
2023-10-23T19:20:30.301Z,19.00
2023-10-23T19:23:19.680Z,19.00
2023-10-23T19:26:08.374Z,19.00
2023-10-23T19:28:57.280Z,18.90
2023-10-23T19:31:47.642Z,18.90
2023-10-23T19:34:38.193Z,18.80
2023-10-23T19:37:27.428Z,18.80
2023-10-23T19:40:17.238Z,18.70
2023-10-23T19:43:15.021Z,18.50
2023-10-23T19:46:04.974Z,18.50
2023-10-23T19:48:54.064Z,18.60
2023-10-23T19:51:46.757Z,18.50
2023-10-23T19:54:37.523Z,18.50
2023-10-23T19:57:31.004Z,18.50
2023-10-23T20:00:19.860Z,18.40
2023-10-23T20:03:08.546Z,18.30
2023-10-23T20:05:57.096Z,18.40
2023-10-23T20:08:47.131Z,18.40
2023-10-23T20:11:35.686Z,18.50
2023-10-23T20:14:24.218Z,18.40
2023-10-23T20:17:13.087Z,18.60
2023-10-23T20:20:01.734Z,18.50
2023-10-23T20:22:50.584Z,18.50
2023-10-23T20:25:40.561Z,18.50
2023-10-23T20:28:29.924Z,18.50
2023-10-23T20:31:20.113Z,18.40
2023-10-23T20:34:08.842Z,18.40
2023-10-23T20:36:57.397Z,18.40
2023-10-23T20:39:45.894Z,18.20
2023-10-23T20:42:37.278Z,18.40
2023-10-23T20:45:26.084Z,18.40
2023-10-23T20:48:15.481Z,18.40
2023-10-23T20:51:07.078Z,18.40
2023-10-23T20:53:55.690Z,18.40
2023-10-23T20:56:44.338Z,18.40
2023-10-23T20:59:34.262Z,18.40
2023-10-23T21:02:22.888Z,18.30
2023-10-23T21:05:11.663Z,18.20
2023-10-23T21:08:00.299Z,18.20
2023-10-23T21:10:50.706Z,18.20
2023-10-23T21:13:39.731Z,18.20
2023-10-23T21:16:30.706Z,18.20
2023-10-23T21:19:21.500Z,18.20
2023-10-23T21:22:10.233Z,18.10
2023-10-23T21:24:58.927Z,18.10
2023-10-23T21:27:47.750Z,18.10
2023-10-23T21:30:36.279Z,18.00
2023-10-23T21:33:26.343Z,18.00
2023-10-23T21:36:14.977Z,18.00
2023-10-23T21:39:03.793Z,17.90
2023-10-23T21:41:52.367Z,17.90
2023-10-23T21:44:41.139Z,17.70
2023-10-23T21:47:29.892Z,17.70
2023-10-23T21:50:20.380Z,17.70
2023-10-23T21:53:09.359Z,17.60
2023-10-23T21:55:58.594Z,17.60
2023-10-23T21:59:08.512Z,17.70
2023-10-23T22:01:57.488Z,17.50
2023-10-23T22:04:46.755Z,17.50
2023-10-23T22:07:37.546Z,17.60
2023-10-23T22:10:28.154Z,17.50
2023-10-23T22:13:17.318Z,17.60
2023-10-23T22:16:07.125Z,17.60
2023-10-23T22:18:55.740Z,17.50
2023-10-23T22:21:44.362Z,17.50
2023-10-23T22:24:34.259Z,17.50
2023-10-23T22:27:22.889Z,17.40
2023-10-23T22:30:12.653Z,17.40
2023-10-23T22:33:14.340Z,17.40
2023-10-23T22:36:03.723Z,17.40
2023-10-23T22:38:52.349Z,17.40
2023-10-23T22:41:42.389Z,17.30
2023-10-23T22:44:30.990Z,17.30
2023-10-23T22:47:19.964Z,17.30
2023-10-23T22:50:10.375Z,17.20
2023-10-23T22:52:59.865Z,17.00
2023-10-23T22:55:53.643Z,17.00
2023-10-23T22:58:44.484Z,17.00
2023-10-23T23:01:34.014Z,16.90
2023-10-23T23:04:23.108Z,16.90
2023-10-23T23:07:13.944Z,16.80
2023-10-23T23:10:03.416Z,16.80
2023-10-23T23:12:52.591Z,16.70
2023-10-23T23:15:46.161Z,16.80
2023-10-23T23:18:38.338Z,16.60
2023-10-23T23:21:29.778Z,16.60
2023-10-23T23:24:18.352Z,16.60
2023-10-23T23:27:07.343Z,16.60
2023-10-23T23:29:56.133Z,16.70
2023-10-23T23:32:46.138Z,16.70
2023-10-23T23:35:34.810Z,16.80
2023-10-23T23:38:23.505Z,16.90
2023-10-23T23:41:11.964Z,16.90
2023-10-23T23:44:00.549Z,16.80
2023-10-23T23:46:49.112Z,16.80
2023-10-23T23:49:40.887Z,16.60
2023-10-23T23:52:29.717Z,16.50
2023-10-23T23:55:18.547Z,16.70
2023-10-23T23:58:07.190Z,16.60
